Terminal Aerodrome Forecast
Issued by NWS

Home | Current Version | Previous Version | Text Only | Print | Product List | Glossary On
Versions: 1 2 3 4 5 6 7 8 9 10 11 12
364
FTUS46 KSEW 261721
TAFCLM
TAF
KCLM 261721Z 2618/2718 05005KT P6SM SCT250
     FM270200 28009KT P6SM SCT250
     FM270900 30010KT 5SM BR OVC008=

USA.gov is the U.S. government's official web portal to all federal, state and local government web resources and services.